Time;durP1;ratioP1;P1;durP2;ratioP2;P2;SDS_P1;SDS_P2;PMS_P1;PMS_P2;Temp;Humidity;BMP_temperature;BMP_pressure;BME280_temperature;BME280_humidity;BME280_pressure;Samples;Min_cycle;Max_cycle;Signal;HPM_P1;HPM_P2
2023/07/01 00:01:37;;;;;;;7.75;5.30;;;;;;;;;;10586129;27;20063;-75
2023/07/01 00:06:41;;;;;;;8.32;5.72;;;;;;;;;;10587038;27;20114;-75
2023/07/01 00:11:41;;;;;;;7.32;5.88;;;;;;;;;;10582459;27;20067;-76
2023/07/01 00:16:42;;;;;;;6.50;4.90;;;;;;;;;;10571084;27;20031;-77
2023/07/01 00:21:42;;;;;;;6.87;6.17;;;;;;;;;;10591622;27;20501;-76
2023/07/01 00:26:42;;;;;;;7.00;5.60;;;;;;;;;;10586792;27;20296;-77
2023/07/01 00:31:43;;;;;;;6.88;5.82;;;;;;;;;;10586164;27;20031;-75
2023/07/01 00:36:43;;;;;;;8.00;5.43;;;;;;;;;;10577688;27;20042;-76
2023/07/01 00:41:45;;;;;;;8.03;5.77;;;;;;;;;;10581004;27;20150;-76
2023/07/01 00:46:45;;;;;;;7.30;5.63;;;;;;;;;;10581525;27;20349;-76
2023/07/01 00:51:45;;;;;;;7.67;5.70;;;;;;;;;;10588807;27;20104;-77
2023/07/01 00:56:46;;;;;;;7.70;5.82;;;;;;;;;;10578470;27;20038;-75
2023/07/01 01:01:48;;;;;;;7.07;5.80;;;;;;;;;;10581065;27;20035;-75
2023/07/01 01:06:58;;;;;;;8.88;6.30;;;;;;;;;;10580715;27;20035;-76
2023/07/01 01:11:59;;;;;;;7.32;5.88;;;;;;;;;;10566249;27;20032;-76
2023/07/01 01:17:04;;;;;;;7.78;6.15;;;;;;;;;;10582345;27;20131;-76
2023/07/01 01:22:23;;;;;;;7.10;5.68;;;;;;;;;;10570968;27;20455;-76
2023/07/01 01:27:27;;;;;;;9.25;6.75;;;;;;;;;;10535414;27;21315;-76
2023/07/01 01:32:28;;;;;;;8.80;5.82;;;;;;;;;;10564142;27;20032;-75
2023/07/01 01:37:30;;;;;;;7.95;5.53;;;;;;;;;;10580165;27;20043;-75
2023/07/01 01:42:33;;;;;;;7.55;5.80;;;;;;;;;;10562823;27;20148;-76
2023/07/01 01:47:34;;;;;;;;;;;;;;;;;;10532910;27;20396;-77
2023/07/01 01:52:34;;;;;;;9.02;6.53;;;;;;;;;;10533899;27;19923;-76
2023/07/01 01:57:35;;;;;;;8.25;6.13;;;;;;;;;;10549481;27;20154;-76
2023/07/01 02:02:36;;;;;;;11.75;6.50;;;;;;;;;;10544470;27;20395;-75
2023/07/01 02:07:36;;;;;;;8.20;6.05;;;;;;;;;;10524321;27;20042;-76
2023/07/01 02:12:37;;;;;;;8.23;6.53;;;;;;;;;;10541332;28;20028;-76
2023/07/01 02:17:37;;;;;;;9.07;6.32;;;;;;;;;;10551629;27;20286;-75
2023/07/01 02:22:38;;;;;;;7.67;5.40;;;;;;;;;;10539762;27;20085;-76
2023/07/01 02:27:38;;;;;;;8.65;6.55;;;;;;;;;;10535799;28;20115;-76
2023/07/01 02:32:38;;;;;;;8.47;6.30;;;;;;;;;;10538802;28;20031;-75
2023/07/01 02:37:39;;;;;;;8.60;6.15;;;;;;;;;;10523560;28;20469;-73
2023/07/01 02:42:39;;;;;;;9.17;6.63;;;;;;;;;;10536610;28;20142;-76
2023/07/01 02:47:40;;;;;;;8.40;6.22;;;;;;;;;;10545755;28;20586;-74
2023/07/01 02:52:40;;;;;;;10.37;6.57;;;;;;;;;;10536310;28;20027;-75
2023/07/01 02:57:41;;;;;;;8.75;6.53;;;;;;;;;;10528469;28;20184;-76
2023/07/01 03:02:41;;;;;;;8.70;6.53;;;;;;;;;;10546123;28;20451;-75
2023/07/01 03:07:42;;;;;;;11.90;6.50;;;;;;;;;;10526884;28;20050;-75
2023/07/01 03:12:42;;;;;;;7.20;5.57;;;;;;;;;;10533096;28;20028;-76
2023/07/01 03:17:42;;;;;;;8.57;6.17;;;;;;;;;;10534784;28;20089;-76
2023/07/01 03:22:43;;;;;;;7.87;5.97;;;;;;;;;;10548860;27;20309;-76
2023/07/01 03:27:44;;;;;;;7.47;5.63;;;;;;;;;;10587413;27;20331;-76
2023/07/01 03:32:47;;;;;;;7.13;5.47;;;;;;;;;;10604615;27;20038;-76
2023/07/01 03:37:47;;;;;;;8.00;5.90;;;;;;;;;;10597435;27;20501;-75
2023/07/01 03:42:48;;;;;;;7.65;5.78;;;;;;;;;;10591576;27;20058;-75
2023/07/01 03:47:48;;;;;;;8.03;6.57;;;;;;;;;;10590166;27;20391;-76
2023/07/01 03:52:48;;;;;;;9.27;6.13;;;;;;;;;;10579317;27;20038;-75
2023/07/01 03:57:49;;;;;;;10.43;7.17;;;;;;;;;;10576978;27;20038;-76
2023/07/01 04:02:50;;;;;;;8.80;6.75;;;;;;;;;;10587554;27;20357;-76
2023/07/01 04:07:50;;;;;;;11.18;7.47;;;;;;;;;;10575329;27;20142;-74
2023/07/01 04:12:51;;;;;;;9.30;6.38;;;;;;;;;;10583224;27;20040;-76
2023/07/01 04:17:51;;;;;;;8.48;6.97;;;;;;;;;;10596177;27;20441;-74
2023/07/01 04:22:52;;;;;;;10.85;7.72;;;;;;;;;;10592148;27;20512;-76
2023/07/01 04:27:52;;;;;;;10.60;6.93;;;;;;;;;;10590788;27;20039;-74
2023/07/01 04:32:52;;;;;;;9.30;6.37;;;;;;;;;;10590891;27;20284;-77
2023/07/01 04:37:53;;;;;;;9.25;7.05;;;;;;;;;;10575043;27;20027;-75
2023/07/01 04:42:53;;;;;;;9.38;7.05;;;;;;;;;;10605652;27;20145;-75
2023/07/01 04:47:53;;;;;;;9.67;7.07;;;;;;;;;;10651202;27;20092;-77
2023/07/01 04:52:54;;;;;;;11.33;7.40;;;;;;;;;;10635124;27;20023;-77
2023/07/01 04:57:54;;;;;;;10.10;7.20;;;;;;;;;;10586545;27;20043;-77
2023/07/01 05:02:55;;;;;;;10.10;7.13;;;;;;;;;;10599646;27;20035;-76
2023/07/01 05:07:55;;;;;;;7.90;6.60;;;;;;;;;;10590991;27;20282;-76
2023/07/01 05:12:56;;;;;;;9.00;6.88;;;;;;;;;;10571642;27;20066;-76
2023/07/01 05:17:57;;;;;;;9.70;6.93;;;;;;;;;;10590117;27;20120;-75
2023/07/01 05:22:57;;;;;;;9.70;7.30;;;;;;;;;;10574803;27;20051;-77
2023/07/01 05:27:57;;;;;;;8.27;6.37;;;;;;;;;;10591465;27;20042;-78
2023/07/01 05:32:58;;;;;;;9.97;7.77;;;;;;;;;;10606289;27;20043;-78
2023/07/01 05:38:05;;;;;;;9.60;7.63;;;;;;;;;;10601666;27;20276;-81
2023/07/01 05:43:05;;;;;;;8.75;7.22;;;;;;;;;;10590394;27;20489;-78
2023/07/01 05:48:06;;;;;;;10.73;7.53;;;;;;;;;;10590010;27;20047;-80
2023/07/01 05:53:07;;;;;;;10.60;7.33;;;;;;;;;;10586099;27;20019;-74
2023/07/01 05:58:08;;;;;;;9.32;7.00;;;;;;;;;;10593771;27;20319;-75
2023/07/01 06:03:11;;;;;;;10.20;7.85;;;;;;;;;;10561115;27;20043;-74
2023/07/01 06:08:11;;;;;;;10.57;7.80;;;;;;;;;;10593023;27;20042;-74
2023/07/01 06:13:12;;;;;;;12.77;8.60;;;;;;;;;;10586087;27;20042;-76
2023/07/01 06:18:14;;;;;;;11.53;7.57;;;;;;;;;;10590525;27;20474;-75
2023/07/01 06:23:15;;;;;;;;;;;;;;;;;;10586201;27;20055;-75
2023/07/01 06:28:15;;;;;;;13.98;8.82;;;;;;;;;;10588396;27;19915;-75
2023/07/01 06:33:16;;;;;;;13.60;9.40;;;;;;;;;;10571053;27;20031;-75
2023/07/01 06:38:16;;;;;;;11.25;8.23;;;;;;;;;;10591764;27;20034;-78
2023/07/01 06:43:16;;;;;;;13.57;8.57;;;;;;;;;;10593969;27;20055;-76
2023/07/01 06:48:17;;;;;;;10.40;7.73;;;;;;;;;;10575737;27;20041;-76
2023/07/01 06:53:17;;;;;;;8.13;5.90;;;;;;;;;;10586462;27;20288;-79
2023/07/01 06:58:17;;;;;;;7.00;5.73;;;;;;;;;;10584322;27;20031;-78
2023/07/01 07:03:18;;;;;;;6.72;5.28;;;;;;;;;;10588016;27;20039;-77
2023/07/01 07:08:18;;;;;;;6.47;3.90;;;;;;;;;;10583905;27;20487;-75
2023/07/01 07:13:18;;;;;;;5.00;3.85;;;;;;;;;;10574826;27;20046;-79
2023/07/01 07:18:19;;;;;;;6.33;5.50;;;;;;;;;;10591689;27;20060;-77
2023/07/01 07:23:19;;;;;;;5.47;3.30;;;;;;;;;;10573200;27;20320;-79
2023/07/01 07:28:20;;;;;;;3.80;3.15;;;;;;;;;;10554325;28;20288;-76
2023/07/01 07:33:20;;;;;;;3.92;2.58;;;;;;;;;;10531868;27;20467;-77
2023/07/01 07:38:20;;;;;;;2.80;2.50;;;;;;;;;;10532744;27;20040;-78
2023/07/01 07:43:21;;;;;;;4.00;2.83;;;;;;;;;;10555671;28;20066;-82
2023/07/01 07:48:21;;;;;;;3.50;2.58;;;;;;;;;;10570841;28;20036;-80
2023/07/01 07:53:21;;;;;;;2.83;2.43;;;;;;;;;;10583939;28;20119;-74
2023/07/01 07:58:22;;;;;;;4.30;2.30;;;;;;;;;;10586576;28;20050;-83
2023/07/01 08:03:22;;;;;;;3.80;2.63;;;;;;;;;;10533241;28;20396;-76
2023/07/01 08:08:22;;;;;;;3.47;2.30;;;;;;;;;;10543012;28;20045;-80
2023/07/01 08:13:23;;;;;;;2.60;2.40;;;;;;;;;;10554808;28;20328;-75
2023/07/01 08:18:23;;;;;;;3.67;2.53;;;;;;;;;;10552035;28;20040;-81
2023/07/01 08:23:24;;;;;;;2.70;2.35;;;;;;;;;;10573293;27;20379;-77
2023/07/01 08:28:24;;;;;;;3.87;2.60;;;;;;;;;;10567185;27;20032;-81
2023/07/01 08:33:28;;;;;;;3.38;2.15;;;;;;;;;;10589413;27;21118;-79
2023/07/01 08:38:31;;;;;;;5.22;2.47;;;;;;;;;;10579942;27;20031;-78
2023/07/01 08:43:33;;;;;;;3.20;2.50;;;;;;;;;;10580840;27;20557;-75
2023/07/01 08:48:34;;;;;;;3.05;2.13;;;;;;;;;;10582304;27;20480;-76
2023/07/01 08:53:35;;;;;;;3.17;1.95;;;;;;;;;;10578014;27;20031;-75
2023/07/01 08:58:36;;;;;;;3.93;1.73;;;;;;;;;;10581829;27;20034;-80
2023/07/01 09:03:36;;;;;;;3.95;1.95;;;;;;;;;;10572560;27;20496;-75
2023/07/01 09:08:40;;;;;;;2.78;2.17;;;;;;;;;;10562900;27;20038;-77
2023/07/01 09:13:41;;;;;;;2.00;1.80;;;;;;;;;;10559108;27;20106;-77
2023/07/01 09:18:44;;;;;;;3.03;2.10;;;;;;;;;;10578026;27;20031;-90
2023/07/01 09:23:46;;;;;;;4.05;2.20;;;;;;;;;;10550285;28;20943;-88
2023/07/01 09:28:49;;;;;;;2.45;2.08;;;;;;;;;;10524383;28;20093;-81
2023/07/01 09:33:49;;;;;;;;;;;;;;;;;;10551029;28;20679;-77
2023/07/01 09:38:53;;;;;;;4.22;2.00;;;;;;;;;;10545008;28;19919;-77
2023/07/01 09:43:54;;;;;;;3.25;2.03;;;;;;;;;;10532608;28;20048;-79
2023/07/01 09:48:55;;;;;;;2.67;1.92;;;;;;;;;;10546990;28;20047;-81
2023/07/01 09:53:56;;;;;;;2.47;1.73;;;;;;;;;;10551384;28;20035;-79
2023/07/01 09:58:56;;;;;;;3.60;2.17;;;;;;;;;;10553465;28;20035;-78
2023/07/01 10:03:57;;;;;;;4.93;2.33;;;;;;;;;;10543005;28;20092;-76
2023/07/01 10:08:57;;;;;;;2.40;2.20;;;;;;;;;;10544848;28;20757;-78
2023/07/01 10:13:58;;;;;;;2.60;2.07;;;;;;;;;;10550351;28;20039;-79
2023/07/01 10:18:59;;;;;;;5.57;2.08;;;;;;;;;;10543987;28;20032;-78
2023/07/01 10:24:00;;;;;;;3.23;1.90;;;;;;;;;;10547152;28;20046;-78
2023/07/01 10:29:20;;;;;;;3.90;2.38;;;;;;;;;;10552368;27;20024;-79
2023/07/01 10:34:20;;;;;;;5.50;1.90;;;;;;;;;;10550955;28;20134;-78
2023/07/01 10:39:32;;;;;;;3.63;2.10;;;;;;;;;;10558582;27;20047;-75
2023/07/01 10:44:32;;;;;;;4.17;2.30;;;;;;;;;;10558195;27;20216;-79
2023/07/01 10:49:33;;;;;;;2.83;2.20;;;;;;;;;;10562259;27;20105;-75
2023/07/01 10:54:38;;;;;;;3.20;2.43;;;;;;;;;;10584096;27;20079;-86
2023/07/01 10:59:38;;;;;;;5.13;3.40;;;;;;;;;;10570237;27;20023;-78
2023/07/01 11:04:54;;;;;;;4.90;2.53;;;;;;;;;;10557402;27;20258;-77
2023/07/01 11:09:55;;;;;;;5.25;4.38;;;;;;;;;;10563296;27;20040;-78
2023/07/01 11:14:55;;;;;;;3.25;2.60;;;;;;;;;;10561700;27;20035;-80
2023/07/01 11:19:58;;;;;;;4.57;2.37;;;;;;;;;;10559075;27;20031;-78
2023/07/01 11:25:02;;;;;;;3.45;2.40;;;;;;;;;;10529050;28;20138;-79
2023/07/01 11:30:03;;;;;;;3.58;2.28;;;;;;;;;;10533758;28;20106;-82
2023/07/01 11:35:04;;;;;;;2.97;2.42;;;;;;;;;;10555226;28;20039;-76
2023/07/01 11:40:04;;;;;;;3.47;2.30;;;;;;;;;;10549722;28;20333;-80
2023/07/01 11:45:05;;;;;;;2.83;2.30;;;;;;;;;;10535527;28;20101;-77
2023/07/01 11:50:06;;;;;;;3.00;2.20;;;;;;;;;;10542854;28;20159;-80
2023/07/01 11:55:07;;;;;;;3.38;2.50;;;;;;;;;;10528254;28;20044;-77
2023/07/01 12:00:25;;;;;;;4.15;2.75;;;;;;;;;;10545508;27;20031;-78
2023/07/01 12:05:25;;;;;;;4.63;2.85;;;;;;;;;;10536689;28;20047;-81
2023/07/01 12:10:26;;;;;;;5.47;3.08;;;;;;;;;;10542077;28;20368;-84
2023/07/01 12:15:28;;;;;;;4.40;2.97;;;;;;;;;;10536865;28;20130;-84
2023/07/01 12:20:28;;;;;;;4.68;3.17;;;;;;;;;;10514888;28;20309;-81
2023/07/01 12:25:29;;;;;;;3.05;2.67;;;;;;;;;;10532081;27;20054;-75
2023/07/01 12:30:29;;;;;;;3.47;2.50;;;;;;;;;;10543496;28;20085;-78
2023/07/01 12:35:29;;;;;;;4.65;2.70;;;;;;;;;;10536668;28;20040;-79
2023/07/01 12:40:31;;;;;;;4.32;2.92;;;;;;;;;;10540927;28;20071;-76
2023/07/01 12:45:31;;;;;;;4.13;2.60;;;;;;;;;;10552339;28;20066;-77
2023/07/01 12:50:32;;;;;;;3.83;2.73;;;;;;;;;;10553165;28;20142;-77
2023/07/01 12:55:32;;;;;;;3.60;2.90;;;;;;;;;;10536401;28;20038;-77
2023/07/01 13:00:33;;;;;;;3.57;2.70;;;;;;;;;;10532685;28;20027;-80
2023/07/01 13:05:33;;;;;;;3.60;2.80;;;;;;;;;;10536108;28;20052;-78
2023/07/01 13:10:37;;;;;;;3.53;2.60;;;;;;;;;;10547174;28;20039;-77
2023/07/01 13:15:46;;;;;;;3.72;3.13;;;;;;;;;;10552230;28;20087;-75
2023/07/01 13:20:47;;;;;;;2.83;2.53;;;;;;;;;;10550169;28;20039;-79
2023/07/01 13:25:48;;;;;;;5.10;3.13;;;;;;;;;;10530523;28;20048;-75
2023/07/01 13:30:49;;;;;;;3.28;2.97;;;;;;;;;;10542432;28;20100;-79
2023/07/01 13:35:52;;;;;;;6.83;3.23;;;;;;;;;;10536770;28;20860;-75
2023/07/01 13:40:52;;;;;;;4.10;2.85;;;;;;;;;;10540139;28;20027;-78
2023/07/01 13:45:53;;;;;;;4.28;3.10;;;;;;;;;;10533351;28;20864;-75
2023/07/01 13:50:54;;;;;;;3.67;3.00;;;;;;;;;;10522794;27;20028;-74
2023/07/01 13:55:57;;;;;;;2.85;2.35;;;;;;;;;;10549205;28;20036;-74
2023/07/01 14:00:59;;;;;;;4.15;2.30;;;;;;;;;;10529388;28;20024;-78
2023/07/01 14:06:00;;;;;;;2.92;2.40;;;;;;;;;;10546194;27;20182;-75
2023/07/01 14:11:00;;;;;;;4.27;2.70;;;;;;;;;;10525654;28;20050;-75
2023/07/01 14:16:01;;;;;;;3.87;2.50;;;;;;;;;;10547767;28;20036;-83
2023/07/01 14:21:04;;;;;;;4.57;2.50;;;;;;;;;;10527718;28;20035;-78
2023/07/01 14:26:13;;;;;;;3.53;2.60;;;;;;;;;;10536686;28;20056;-79
2023/07/01 14:31:16;;;;;;;5.55;2.80;;;;;;;;;;10539612;28;20035;-79
2023/07/01 14:36:21;;;;;;;3.63;2.35;;;;;;;;;;10530737;28;20627;-79
2023/07/01 14:41:23;;;;;;;2.92;2.45;;;;;;;;;;10532456;28;20055;-79
2023/07/01 14:46:37;;;;;;;2.85;2.28;;;;;;;;;;10536925;28;20044;-77
2023/07/01 14:51:39;;;;;;;4.68;2.60;;;;;;;;;;10540449;28;20139;-77
2023/07/01 14:56:39;;;;;;;2.97;2.58;;;;;;;;;;10544337;28;20710;-79
2023/07/01 15:01:40;;;;;;;2.93;2.10;;;;;;;;;;10537616;28;20040;-76
2023/07/01 15:06:40;;;;;;;3.47;2.30;;;;;;;;;;10530668;28;20067;-77
2023/07/01 15:11:41;;;;;;;5.53;2.63;;;;;;;;;;10539000;28;20036;-75
2023/07/01 15:16:41;;;;;;;3.90;2.20;;;;;;;;;;10533569;28;20354;-78
2023/07/01 15:21:43;;;;;;;2.97;1.97;;;;;;;;;;10540579;28;20049;-77
2023/07/01 15:26:44;;;;;;;4.00;2.30;;;;;;;;;;10545961;28;20036;-77
2023/07/01 15:31:44;;;;;;;2.70;1.80;;;;;;;;;;10558859;28;20039;-76
2023/07/01 15:36:46;;;;;;;4.77;1.90;;;;;;;;;;10566778;28;20043;-75
2023/07/01 15:41:47;;;;;;;3.17;2.65;;;;;;;;;;10559490;28;20040;-75
2023/07/01 15:46:47;;;;;;;2.53;2.00;;;;;;;;;;10555904;28;20063;-75
2023/07/01 15:51:47;;;;;;;1.67;1.57;;;;;;;;;;10554746;28;20324;-74
2023/07/01 15:56:49;;;;;;;3.47;1.80;;;;;;;;;;10549264;28;20058;-75
2023/07/01 16:01:49;;;;;;;3.97;1.90;;;;;;;;;;10552979;28;20289;-75
2023/07/01 16:06:50;;;;;;;3.33;1.85;;;;;;;;;;10553560;28;20035;-75
2023/07/01 16:11:50;;;;;;;2.60;2.05;;;;;;;;;;10554259;28;20063;-75
2023/07/01 16:16:52;;;;;;;3.83;2.17;;;;;;;;;;10548904;28;20189;-74
2023/07/01 16:21:53;;;;;;;3.53;2.20;;;;;;;;;;10542535;28;20043;-77
2023/07/01 16:26:54;;;;;;;3.30;2.50;;;;;;;;;;10547541;28;20089;-75
2023/07/01 16:31:55;;;;;;;4.10;3.55;;;;;;;;;;10544840;28;20027;-75
2023/07/01 16:36:55;;;;;;;2.83;2.13;;;;;;;;;;10548138;28;20027;-83
2023/07/01 16:41:59;;;;;;;3.27;2.30;;;;;;;;;;10548987;28;20050;-79
2023/07/01 16:47:00;;;;;;;2.85;2.50;;;;;;;;;;10544947;28;20031;-81
2023/07/01 16:52:01;;;;;;;3.33;2.90;;;;;;;;;;10543236;27;20135;-81
2023/07/01 16:57:02;;;;;;;2.37;2.17;;;;;;;;;;10551728;28;20578;-77
2023/07/01 17:02:07;;;;;;;2.58;2.30;;;;;;;;;;10559355;28;20151;-77
2023/07/01 17:07:11;;;;;;;3.13;2.28;;;;;;;;;;10548419;28;20058;-82
2023/07/01 17:12:20;;;;;;;6.75;5.65;;;;;;;;;;10557677;28;20150;-77
2023/07/01 17:17:27;;;;;;;3.70;1.80;;;;;;;;;;10553637;27;20127;-79
2023/07/01 17:22:28;;;;;;;2.28;1.77;;;;;;;;;;10548251;28;20104;-81
2023/07/01 17:27:28;;;;;;;3.13;1.77;;;;;;;;;;10542599;28;20665;-77
2023/07/01 17:32:29;;;;;;;2.20;1.87;;;;;;;;;;10547545;28;20028;-81
2023/07/01 17:37:29;;;;;;;2.70;1.90;;;;;;;;;;10529966;28;20031;-80
2023/07/01 17:42:29;;;;;;;2.07;1.77;;;;;;;;;;10540004;28;20078;-77
2023/07/01 17:47:30;;;;;;;2.50;2.00;;;;;;;;;;10529785;28;20523;-76
2023/07/01 17:52:30;;;;;;;2.20;2.00;;;;;;;;;;10546052;28;20142;-76
2023/07/01 17:57:30;;;;;;;2.30;1.67;;;;;;;;;;10544924;28;20027;-79
2023/07/01 18:02:31;;;;;;;2.67;2.07;;;;;;;;;;10534700;28;20054;-78
2023/07/01 18:07:31;;;;;;;1.67;1.40;;;;;;;;;;10547212;28;20048;-78
2023/07/01 18:12:32;;;;;;;1.73;1.47;;;;;;;;;;10544435;28;20046;-79
2023/07/01 18:17:32;;;;;;;2.63;1.52;;;;;;;;;;10534748;27;20032;-80
2023/07/01 18:22:33;;;;;;;4.47;1.63;;;;;;;;;;10535984;28;20043;-77
2023/07/01 18:27:33;;;;;;;3.57;1.90;;;;;;;;;;10548056;28;20135;-83
2023/07/01 18:32:33;;;;;;;1.83;1.67;;;;;;;;;;10538137;28;20619;-76
2023/07/01 18:37:34;;;;;;;2.17;1.90;;;;;;;;;;10528219;28;20340;-78
2023/07/01 18:42:34;;;;;;;3.60;2.30;;;;;;;;;;10538752;28;20032;-76
2023/07/01 18:47:34;;;;;;;4.22;2.10;;;;;;;;;;10548144;28;20135;-76
2023/07/01 18:52:35;;;;;;;3.43;2.30;;;;;;;;;;10545903;28;20035;-77
2023/07/01 18:57:35;;;;;;;3.23;1.90;;;;;;;;;;10531807;28;20973;-76
2023/07/01 19:02:36;;;;;;;3.33;2.00;;;;;;;;;;10538045;28;20048;-75
2023/07/01 19:07:36;;;;;;;2.10;1.80;;;;;;;;;;10552755;28;20051;-77
2023/07/01 19:12:37;;;;;;;2.35;2.15;;;;;;;;;;10554631;28;20101;-86
2023/07/01 19:17:40;;;;;;;4.72;2.72;;;;;;;;;;10550309;28;20118;-74
2023/07/01 19:22:41;;;;;;;8.67;4.67;;;;;;;;;;10550861;28;20047;-73
2023/07/01 19:27:41;;;;;;;2.70;2.00;;;;;;;;;;10547392;28;20669;-74
2023/07/01 19:32:41;;;;;;;3.10;2.60;;;;;;;;;;10554993;28;20043;-75
2023/07/01 19:37:42;;;;;;;2.73;2.13;;;;;;;;;;10558963;28;20098;-75
2023/07/01 19:42:42;;;;;;;3.80;2.25;;;;;;;;;;10550068;28;20862;-75
2023/07/01 19:47:44;;;;;;;6.20;2.60;;;;;;;;;;10550436;28;20040;-77
2023/07/01 19:52:45;;;;;;;5.10;2.58;;;;;;;;;;10553623;28;20764;-75
2023/07/01 19:57:45;;;;;;;2.78;2.47;;;;;;;;;;10553280;28;20125;-78
2023/07/01 20:02:48;;;;;;;4.40;2.00;;;;;;;;;;10547532;28;20043;-76
2023/07/01 20:07:48;;;;;;;2.90;1.80;;;;;;;;;;10548798;28;20510;-74
2023/07/01 20:12:48;;;;;;;2.40;1.92;;;;;;;;;;10540555;28;20031;-79
2023/07/01 20:17:49;;;;;;;2.00;1.80;;;;;;;;;;10555074;27;20027;-75
2023/07/01 20:22:49;;;;;;;2.87;2.20;;;;;;;;;;10541752;28;20039;-74
2023/07/01 20:27:49;;;;;;;2.47;1.90;;;;;;;;;;10544852;27;20358;-79
2023/07/01 20:32:50;;;;;;;2.40;2.10;;;;;;;;;;10558743;27;20036;-74
2023/07/01 20:37:51;;;;;;;2.37;1.90;;;;;;;;;;10541270;27;20035;-76
2023/07/01 20:42:51;;;;;;;2.28;1.73;;;;;;;;;;10543178;28;20297;-77
2023/07/01 20:47:52;;;;;;;2.40;1.70;;;;;;;;;;10539495;28;20039;-78
2023/07/01 20:52:52;;;;;;;2.53;2.13;;;;;;;;;;10534873;28;20033;-74
2023/07/01 20:57:52;;;;;;;4.43;2.10;;;;;;;;;;10537446;28;20043;-72
2023/07/01 21:02:53;;;;;;;3.63;2.10;;;;;;;;;;10545970;28;20405;-74
2023/07/01 21:07:53;;;;;;;2.93;1.97;;;;;;;;;;10525095;28;20044;-72
2023/07/01 21:12:56;;;;;;;4.03;2.33;;;;;;;;;;10542394;28;20334;-73
2023/07/01 21:17:56;;;;;;;;;;;;;;;;;;10538845;28;20029;-74
2023/07/01 21:22:57;;;;;;;2.50;2.30;;;;;;;;;;10518078;28;19920;-74
2023/07/01 21:28:00;;;;;;;4.20;2.78;;;;;;;;;;10544975;28;20533;-73
2023/07/01 21:33:00;;;;;;;4.80;2.88;;;;;;;;;;10548056;28;20083;-75
2023/07/01 21:38:01;;;;;;;4.43;3.00;;;;;;;;;;10531705;28;20032;-74
2023/07/01 21:43:01;;;;;;;2.60;2.30;;;;;;;;;;10547036;28;20309;-74
2023/07/01 21:48:02;;;;;;;4.17;2.83;;;;;;;;;;10544090;28;20108;-74
2023/07/01 21:53:02;;;;;;;3.00;2.70;;;;;;;;;;10533330;28;20293;-76
2023/07/01 21:58:03;;;;;;;2.80;2.60;;;;;;;;;;10549771;28;20277;-76
2023/07/01 22:03:03;;;;;;;4.07;2.50;;;;;;;;;;10550961;28;20035;-75
2023/07/01 22:08:03;;;;;;;3.40;2.60;;;;;;;;;;10533579;28;20080;-77
2023/07/01 22:13:04;;;;;;;2.30;2.05;;;;;;;;;;10547203;28;20742;-76
2023/07/01 22:18:04;;;;;;;2.15;1.95;;;;;;;;;;10536621;28;20028;-74
2023/07/01 22:23:05;;;;;;;2.33;1.83;;;;;;;;;;10545434;28;20031;-72
2023/07/01 22:28:05;;;;;;;2.37;1.50;;;;;;;;;;10543990;28;20095;-74
2023/07/01 22:33:06;;;;;;;2.33;1.42;;;;;;;;;;10537901;28;20102;-78
2023/07/01 22:38:06;;;;;;;1.67;1.10;;;;;;;;;;10538105;28;20092;-73
2023/07/01 22:43:07;;;;;;;2.07;1.23;;;;;;;;;;10537375;28;20079;-73
2023/07/01 22:48:07;;;;;;;1.70;1.13;;;;;;;;;;10520442;28;20285;-73
2023/07/01 22:53:07;;;;;;;1.95;1.65;;;;;;;;;;10542395;28;20036;-73
2023/07/01 22:58:08;;;;;;;1.88;1.17;;;;;;;;;;10541559;28;20100;-73
2023/07/01 23:03:08;;;;;;;1.77;1.40;;;;;;;;;;10532519;28;20052;-74
2023/07/01 23:08:09;;;;;;;1.57;1.37;;;;;;;;;;10534878;28;20040;-74
2023/07/01 23:13:09;;;;;;;2.07;1.30;;;;;;;;;;10534751;28;20052;-74
2023/07/01 23:18:10;;;;;;;2.27;1.60;;;;;;;;;;10532304;28;20290;-75
2023/07/01 23:23:13;;;;;;;1.92;1.73;;;;;;;;;;10528522;28;20769;-74
2023/07/01 23:28:14;;;;;;;3.13;2.40;;;;;;;;;;10537236;28;20104;-72
2023/07/01 23:33:16;;;;;;;2.53;2.10;;;;;;;;;;10540604;28;20089;-72
2023/07/01 23:38:16;;;;;;;;;;;;;;;;;;10531776;28;20319;-74
2023/07/01 23:43:18;;;;;;;2.80;2.20;;;;;;;;;;10537641;28;20695;-76
2023/07/01 23:48:19;;;;;;;2.63;2.10;;;;;;;;;;10542854;28;20035;-74
2023/07/01 23:53:19;;;;;;;2.40;2.20;;;;;;;;;;10543845;27;20051;-75
2023/07/01 23:58:19;;;;;;;2.47;2.17;;;;;;;;;;10555056;28;20055;-72
